createdAt,value
2023-05-09T00:00:01.572Z,93.00
2023-05-09T00:00:53.106Z,93.41
2023-05-09T00:01:45.401Z,92.95
2023-05-09T00:02:38.614Z,93.17
2023-05-09T00:03:30.207Z,93.34
2023-05-09T00:04:22.157Z,93.07
2023-05-09T00:05:15.272Z,93.81
2023-05-09T00:06:07.465Z,94.23
2023-05-09T00:07:01.318Z,93.47
2023-05-09T00:07:52.832Z,93.58
2023-05-09T00:08:44.299Z,94.00
2023-05-09T00:09:35.913Z,94.16
2023-05-09T00:10:27.614Z,94.03
2023-05-09T00:11:19.055Z,93.55
2023-05-09T00:12:12.181Z,94.65
2023-05-09T00:13:03.949Z,94.51
2023-05-09T00:13:57.764Z,94.79
2023-05-09T00:14:51.720Z,93.46
2023-05-09T00:15:44.283Z,94.28
2023-05-09T00:16:40.314Z,94.03
2023-05-09T00:17:36.325Z,94.21
2023-05-09T00:18:28.461Z,93.41
2023-05-09T00:19:20.140Z,93.50
2023-05-09T00:20:12.812Z,93.15
2023-05-09T00:21:04.504Z,94.42
2023-05-09T00:21:56.361Z,94.84
2023-05-09T00:22:50.149Z,95.39
2023-05-09T00:23:41.575Z,94.55
2023-05-09T00:24:33.128Z,93.76
2023-05-09T00:25:24.717Z,93.70
2023-05-09T00:26:16.408Z,93.47
2023-05-09T00:27:09.820Z,94.39
2023-05-09T00:28:01.322Z,93.94
2023-05-09T00:28:53.153Z,94.27
2023-05-09T00:29:44.977Z,93.85
2023-05-09T00:30:36.478Z,93.83
2023-05-09T00:31:27.956Z,94.21
2023-05-09T00:32:19.386Z,93.84
2023-05-09T00:33:10.853Z,93.88
2023-05-09T00:34:03.529Z,94.63
2023-05-09T00:34:56.096Z,94.73
2023-05-09T00:35:47.733Z,94.11
2023-05-09T00:36:39.544Z,94.92
2023-05-09T00:37:31.476Z,95.20
2023-05-09T00:38:23.610Z,95.40
2023-05-09T00:39:17.289Z,95.93
2023-05-09T00:40:09.419Z,95.73
2023-05-09T00:41:00.941Z,95.43
2023-05-09T00:41:53.729Z,95.31
2023-05-09T00:42:45.801Z,95.53
2023-05-09T00:43:37.468Z,95.69
2023-05-09T00:44:29.184Z,95.63
2023-05-09T00:45:21.918Z,95.12
2023-05-09T00:46:13.631Z,94.63
2023-05-09T00:47:07.597Z,94.63
2023-05-09T00:48:01.532Z,94.79
2023-05-09T00:48:53.540Z,94.41
2023-05-09T00:49:45.011Z,94.88
2023-05-09T00:50:36.735Z,95.07
2023-05-09T00:51:29.246Z,95.78
2023-05-09T00:52:23.510Z,94.77
2023-05-09T00:53:14.927Z,95.46
2023-05-09T00:54:09.210Z,95.36
2023-05-09T00:55:02.596Z,96.57
2023-05-09T00:55:59.907Z,96.00
2023-05-09T00:56:51.852Z,94.93
2023-05-09T00:57:45.277Z,95.13
2023-05-09T00:58:37.665Z,95.85
2023-05-09T00:59:29.301Z,95.48
2023-05-09T01:00:21.317Z,95.25
2023-05-09T01:01:14.871Z,95.28
2023-05-09T01:02:06.937Z,94.91
2023-05-09T01:02:58.933Z,95.96
2023-05-09T01:03:51.474Z,95.12
2023-05-09T01:04:45.465Z,95.57
2023-05-09T01:05:56.693Z,95.80
2023-05-09T01:07:19.605Z,94.53
2023-05-09T01:08:24.657Z,94.51
2023-05-09T01:09:29.343Z,94.03
2023-05-09T01:10:31.546Z,94.58
2023-05-09T01:11:34.206Z,95.80
2023-05-09T01:12:57.944Z,94.01
2023-05-09T01:14:08.303Z,94.81
2023-05-09T01:15:16.183Z,94.54
2023-05-09T01:16:17.621Z,94.45
2023-05-09T01:17:36.661Z,94.23
2023-05-09T01:18:47.100Z,93.46
2023-05-09T01:19:56.785Z,94.22
2023-05-09T01:21:11.625Z,94.03
2023-05-09T01:22:08.842Z,94.81
2023-05-09T01:23:17.768Z,95.03
2023-05-09T01:24:48.193Z,94.42
2023-05-09T01:26:06.089Z,95.60
2023-05-09T01:27:15.993Z,94.21
2023-05-09T01:28:35.027Z,95.15
2023-05-09T01:29:46.097Z,94.34
2023-05-09T01:30:38.978Z,94.41
2023-05-09T01:31:34.647Z,94.14
2023-05-09T01:32:28.928Z,94.72
2023-05-09T01:33:26.496Z,93.74
2023-05-09T01:34:18.629Z,94.11
2023-05-09T01:35:14.324Z,94.39
2023-05-09T01:36:12.606Z,94.45
2023-05-09T01:37:06.969Z,94.24
2023-05-09T01:38:01.833Z,94.63
2023-05-09T01:38:54.930Z,94.73
2023-05-09T01:39:51.518Z,95.10
2023-05-09T01:40:52.870Z,94.80
2023-05-09T01:41:46.064Z,94.52
2023-05-09T01:43:00.324Z,94.56
2023-05-09T01:43:55.073Z,95.34
2023-05-09T01:44:48.782Z,93.69
2023-05-09T01:45:42.382Z,93.85
2023-05-09T01:46:36.370Z,93.52
2023-05-09T01:47:31.236Z,94.15
2023-05-09T01:48:28.817Z,93.48
2023-05-09T01:49:22.136Z,93.73
2023-05-09T01:50:16.895Z,93.25
2023-05-09T01:51:10.894Z,92.60
2023-05-09T01:52:10.006Z,92.77
2023-05-09T01:53:02.327Z,92.94
2023-05-09T01:53:58.040Z,93.95
2023-05-09T01:54:51.817Z,94.49
2023-05-09T01:55:44.366Z,94.45
2023-05-09T01:56:38.893Z,92.17
2023-05-09T01:57:31.317Z,93.46
2023-05-09T01:58:25.827Z,93.48
2023-05-09T01:59:20.399Z,92.99
2023-05-09T02:00:15.042Z,93.62
2023-05-09T02:01:10.649Z,93.89
2023-05-09T02:02:04.466Z,93.88
2023-05-09T02:02:59.430Z,94.51
2023-05-09T02:03:52.756Z,93.82
2023-05-09T02:04:46.952Z,94.63
2023-05-09T02:05:40.197Z,94.86
2023-05-09T02:06:33.082Z,95.05
2023-05-09T02:07:25.054Z,94.72
2023-05-09T02:08:23.351Z,93.25
2023-05-09T02:09:15.549Z,92.44
2023-05-09T02:10:09.541Z,92.24
2023-05-09T02:11:02.284Z,92.67
2023-05-09T02:11:54.406Z,93.59
2023-05-09T02:12:46.076Z,94.05
2023-05-09T02:13:39.933Z,94.01
2023-05-09T02:14:32.193Z,93.35
2023-05-09T02:15:24.834Z,94.28
2023-05-09T02:16:16.827Z,94.27
2023-05-09T02:17:10.588Z,94.65
2023-05-09T02:18:02.140Z,94.22
2023-05-09T02:18:53.951Z,93.36
2023-05-09T02:19:47.322Z,93.80
2023-05-09T02:20:41.167Z,93.38
2023-05-09T02:21:33.105Z,92.82
2023-05-09T02:22:24.901Z,92.91
2023-05-09T02:23:16.495Z,93.65
2023-05-09T02:24:08.173Z,93.52
2023-05-09T02:25:00.706Z,92.25
2023-05-09T02:25:55.375Z,93.96
2023-05-09T02:26:47.693Z,91.80
2023-05-09T02:27:40.979Z,93.11
2023-05-09T02:28:33.582Z,94.26
2023-05-09T02:29:40.681Z,92.40
2023-05-09T02:30:38.815Z,93.04
2023-05-09T02:31:31.615Z,92.29
2023-05-09T02:32:29.153Z,92.95
2023-05-09T02:33:20.896Z,93.25
2023-05-09T02:34:14.071Z,94.05
2023-05-09T02:35:10.360Z,93.61
2023-05-09T02:36:02.712Z,93.26
2023-05-09T02:36:54.397Z,93.41
2023-05-09T02:37:50.161Z,93.14
2023-05-09T02:38:41.820Z,93.21
2023-05-09T02:39:33.800Z,93.51
2023-05-09T02:40:29.473Z,94.21
2023-05-09T02:41:27.406Z,94.03
2023-05-09T02:42:25.409Z,94.84
2023-05-09T02:43:17.136Z,94.15
2023-05-09T02:44:11.098Z,93.03
2023-05-09T02:45:02.607Z,93.80
2023-05-09T02:45:54.392Z,93.17
2023-05-09T02:46:45.890Z,93.07
2023-05-09T02:47:38.131Z,93.66
2023-05-09T02:48:29.831Z,93.41
2023-05-09T02:49:31.429Z,93.56
2023-05-09T02:50:25.261Z,92.86
2023-05-09T02:51:16.906Z,92.49
2023-05-09T02:52:08.825Z,93.53
2023-05-09T02:53:00.368Z,93.05
2023-05-09T02:53:51.806Z,93.00
2023-05-09T02:54:43.578Z,93.36
2023-05-09T02:55:35.172Z,93.66
2023-05-09T02:56:26.723Z,93.73
2023-05-09T02:57:18.187Z,93.44
2023-05-09T02:58:14.281Z,92.83
2023-05-09T02:59:07.266Z,93.37
2023-05-09T03:00:01.404Z,93.13
2023-05-09T03:00:54.001Z,93.45
2023-05-09T03:01:46.520Z,93.24
2023-05-09T03:02:38.728Z,94.08
2023-05-09T03:03:34.595Z,93.26
2023-05-09T03:04:32.020Z,93.78
2023-05-09T03:05:25.263Z,93.05
2023-05-09T03:06:16.771Z,93.97
2023-05-09T03:07:08.344Z,93.59
2023-05-09T03:07:59.761Z,92.30
2023-05-09T03:08:51.541Z,92.63
2023-05-09T03:09:43.133Z,92.97
2023-05-09T03:10:35.637Z,93.32
2023-05-09T03:11:27.752Z,93.02
2023-05-09T03:12:19.279Z,92.98
2023-05-09T03:13:10.780Z,92.42
2023-05-09T03:14:02.999Z,93.38
2023-05-09T03:14:54.414Z,93.35
2023-05-09T03:15:45.931Z,93.41
2023-05-09T03:16:38.044Z,93.65
2023-05-09T03:17:32.866Z,93.79
2023-05-09T03:18:24.579Z,93.09
2023-05-09T03:19:16.572Z,93.55
2023-05-09T03:20:08.528Z,93.43
2023-05-09T03:21:00.370Z,93.94
2023-05-09T03:21:52.250Z,92.92
2023-05-09T03:22:48.612Z,92.78
2023-05-09T03:23:40.811Z,94.19
2023-05-09T03:24:32.582Z,93.18
2023-05-09T03:25:27.362Z,93.55
2023-05-09T03:26:24.010Z,93.33
2023-05-09T03:27:15.718Z,93.19
2023-05-09T03:28:07.137Z,93.25
2023-05-09T03:28:58.916Z,93.02
2023-05-09T03:29:50.456Z,93.68
2023-05-09T03:30:43.519Z,94.06
2023-05-09T03:31:38.194Z,94.79
2023-05-09T03:32:29.734Z,94.71
2023-05-09T03:33:21.273Z,93.45
2023-05-09T03:34:15.207Z,93.69
2023-05-09T03:35:11.012Z,92.81
2023-05-09T03:36:02.992Z,92.51
2023-05-09T03:36:54.418Z,93.42
2023-05-09T03:37:46.041Z,93.53
2023-05-09T03:38:38.704Z,93.46
2023-05-09T03:39:30.251Z,93.47
2023-05-09T03:40:24.486Z,93.25
2023-05-09T03:41:27.960Z,93.29
2023-05-09T03:42:19.545Z,92.91
2023-05-09T03:43:14.202Z,93.19
2023-05-09T03:44:06.309Z,93.64
2023-05-09T03:44:57.992Z,92.77
2023-05-09T03:45:49.438Z,93.10
2023-05-09T03:46:43.437Z,93.29
2023-05-09T03:47:35.322Z,93.40
2023-05-09T03:48:27.526Z,93.29
2023-05-09T03:49:21.709Z,93.56
2023-05-09T03:50:16.843Z,93.23
2023-05-09T03:51:09.367Z,93.05
2023-05-09T03:52:04.045Z,93.88
2023-05-09T03:52:56.858Z,93.27
2023-05-09T03:53:49.565Z,93.81
2023-05-09T03:54:41.501Z,93.58
2023-05-09T03:55:33.336Z,93.64
2023-05-09T03:56:26.587Z,93.61
2023-05-09T03:57:18.512Z,93.91
2023-05-09T03:58:13.084Z,93.78
2023-05-09T03:59:07.400Z,93.47
2023-05-09T03:59:59.190Z,93.78
2023-05-09T04:00:50.736Z,93.46
2023-05-09T04:01:47.609Z,93.78
2023-05-09T04:02:39.366Z,93.87
2023-05-09T04:03:31.938Z,92.53
2023-05-09T04:04:26.041Z,91.94
2023-05-09T04:05:18.150Z,92.72
2023-05-09T04:06:10.255Z,92.79
2023-05-09T04:07:06.538Z,92.88
2023-05-09T04:07:58.223Z,93.04
2023-05-09T04:08:49.764Z,93.07
2023-05-09T04:09:42.715Z,92.33
2023-05-09T04:10:36.606Z,92.97
2023-05-09T04:11:29.056Z,94.18
2023-05-09T04:12:23.643Z,93.20
2023-05-09T04:13:16.478Z,93.33
2023-05-09T04:14:10.332Z,93.94
2023-05-09T04:15:04.440Z,93.86
2023-05-09T04:15:56.179Z,93.15
2023-05-09T04:16:48.051Z,93.56
2023-05-09T04:17:41.376Z,93.78
2023-05-09T04:18:32.911Z,93.76
2023-05-09T04:19:24.814Z,93.79
2023-05-09T04:20:16.647Z,92.65
2023-05-09T04:21:09.396Z,93.41
2023-05-09T04:22:00.919Z,92.51
2023-05-09T04:22:52.289Z,93.05
2023-05-09T04:23:44.990Z,93.40
2023-05-09T04:24:37.392Z,93.81
2023-05-09T04:25:29.463Z,94.20
2023-05-09T04:26:21.762Z,94.52
2023-05-09T04:27:16.993Z,94.00
2023-05-09T04:28:08.661Z,94.51
2023-05-09T04:29:00.947Z,94.36
2023-05-09T04:29:53.731Z,94.78
2023-05-09T04:30:45.742Z,94.54
2023-05-09T04:31:37.640Z,93.84
2023-05-09T04:32:31.256Z,93.68
2023-05-09T04:33:24.449Z,93.55
2023-05-09T04:34:16.836Z,93.30
2023-05-09T04:35:10.291Z,93.34
2023-05-09T04:36:08.372Z,93.49
2023-05-09T04:37:00.209Z,94.21
2023-05-09T04:37:53.437Z,93.33
2023-05-09T04:38:45.124Z,94.48
2023-05-09T04:39:43.290Z,94.02
2023-05-09T04:40:41.906Z,94.86
2023-05-09T04:41:39.188Z,93.91
2023-05-09T04:42:33.650Z,93.93
2023-05-09T04:43:27.859Z,94.03
2023-05-09T04:44:21.613Z,93.48
2023-05-09T04:45:13.676Z,92.75
2023-05-09T04:46:08.206Z,93.24
2023-05-09T04:47:00.527Z,94.00
2023-05-09T04:47:52.777Z,93.41
2023-05-09T04:48:44.513Z,93.63
2023-05-09T04:49:35.944Z,93.35
2023-05-09T04:50:27.398Z,94.12
2023-05-09T04:51:19.009Z,93.91
2023-05-09T04:52:10.476Z,93.70
2023-05-09T04:53:01.917Z,93.53
2023-05-09T04:53:55.553Z,93.94
2023-05-09T04:54:52.347Z,94.18
2023-05-09T04:55:46.488Z,93.81
2023-05-09T04:56:40.449Z,94.19
2023-05-09T04:57:32.084Z,93.86
2023-05-09T04:58:26.451Z,93.75
2023-05-09T04:59:18.557Z,94.20
2023-05-09T05:00:16.804Z,94.05
2023-05-09T05:01:10.476Z,93.76
2023-05-09T05:02:02.897Z,94.27
2023-05-09T05:02:56.773Z,93.84
2023-05-09T05:03:50.813Z,93.48
2023-05-09T05:04:42.345Z,94.38
2023-05-09T05:05:40.056Z,93.76
2023-05-09T05:06:34.822Z,95.28
2023-05-09T05:07:26.668Z,94.18
2023-05-09T05:08:18.610Z,93.81
2023-05-09T05:09:11.880Z,94.18
2023-05-09T05:10:03.438Z,94.64
2023-05-09T05:10:55.153Z,94.10
2023-05-09T05:11:58.459Z,92.83
2023-05-09T05:12:52.701Z,93.91
2023-05-09T05:13:46.465Z,92.94
2023-05-09T05:14:37.886Z,93.45
2023-05-09T05:15:31.713Z,93.93
2023-05-09T05:16:23.983Z,93.26
2023-05-09T05:17:17.298Z,94.16
2023-05-09T05:18:12.038Z,94.29
2023-05-09T05:19:03.631Z,94.35
2023-05-09T05:20:01.433Z,93.60
2023-05-09T05:20:58.624Z,93.26
2023-05-09T05:21:50.515Z,93.77
2023-05-09T05:22:42.048Z,94.96
2023-05-09T05:23:36.939Z,92.14
2023-05-09T05:24:29.578Z,93.14
2023-05-09T05:25:22.372Z,92.75
2023-05-09T05:26:18.577Z,93.18
2023-05-09T05:27:11.627Z,92.67
2023-05-09T05:28:03.291Z,92.42
2023-05-09T05:28:56.425Z,92.16
2023-05-09T05:29:50.338Z,91.94
2023-05-09T05:30:42.090Z,91.42
2023-05-09T05:31:33.632Z,91.59
2023-05-09T05:32:25.198Z,90.77
2023-05-09T05:33:16.728Z,90.58
2023-05-09T05:34:08.584Z,90.62
2023-05-09T05:35:02.565Z,91.70
2023-05-09T05:35:56.794Z,92.02
2023-05-09T05:36:48.495Z,90.87
2023-05-09T05:37:41.447Z,90.82
2023-05-09T05:38:33.268Z,90.25
2023-05-09T05:39:27.199Z,91.19
2023-05-09T05:40:19.116Z,90.98
2023-05-09T05:41:15.512Z,90.82
2023-05-09T05:42:07.304Z,90.55
2023-05-09T05:42:59.191Z,91.42
2023-05-09T05:43:54.093Z,91.72
2023-05-09T05:44:46.107Z,90.68
2023-05-09T05:45:38.118Z,90.90
2023-05-09T05:46:32.165Z,89.83
2023-05-09T05:47:24.556Z,90.33
2023-05-09T05:48:19.347Z,90.17
2023-05-09T05:49:13.333Z,89.65
2023-05-09T05:50:11.771Z,89.06
2023-05-09T05:51:03.741Z,90.46
2023-05-09T05:51:56.885Z,90.14
2023-05-09T05:52:49.180Z,90.62
2023-05-09T05:53:42.641Z,89.03
2023-05-09T05:54:34.761Z,90.07
2023-05-09T05:55:26.259Z,87.15
2023-05-09T05:56:17.820Z,88.88
2023-05-09T05:57:09.304Z,89.31
2023-05-09T05:58:01.263Z,85.58
2023-05-09T05:58:53.987Z,87.95
2023-05-09T05:59:50.270Z,87.73
2023-05-09T06:00:41.964Z,87.30
2023-05-09T06:01:33.593Z,88.89
2023-05-09T06:02:25.394Z,88.19
2023-05-09T06:03:17.440Z,88.11
2023-05-09T06:04:17.085Z,88.06
2023-05-09T06:05:09.052Z,87.85
2023-05-09T06:06:00.657Z,88.95
2023-05-09T06:06:52.385Z,89.75
2023-05-09T06:07:46.732Z,89.35
2023-05-09T06:08:38.226Z,88.73
2023-05-09T06:09:29.859Z,87.53
2023-05-09T06:10:21.527Z,87.75
2023-05-09T06:11:16.506Z,86.71
2023-05-09T06:12:12.058Z,87.01
2023-05-09T06:13:06.530Z,86.02
2023-05-09T06:13:59.292Z,85.36
2023-05-09T06:14:53.152Z,86.13
2023-05-09T06:15:44.879Z,86.04
2023-05-09T06:16:36.371Z,87.16
2023-05-09T06:17:28.036Z,85.06
2023-05-09T06:18:20.880Z,85.66
2023-05-09T06:19:12.914Z,86.47
2023-05-09T06:20:05.741Z,84.89
2023-05-09T06:20:57.153Z,85.82
2023-05-09T06:21:49.534Z,86.95
2023-05-09T06:22:40.939Z,86.38
2023-05-09T06:23:33.204Z,84.63
2023-05-09T06:24:35.236Z,86.52
2023-05-09T06:25:27.003Z,85.50
2023-05-09T06:26:18.478Z,84.56
2023-05-09T06:27:10.006Z,82.63
2023-05-09T06:28:01.386Z,85.26
2023-05-09T06:28:52.827Z,85.02
2023-05-09T06:29:44.252Z,84.12
2023-05-09T06:30:35.626Z,84.56
2023-05-09T06:31:27.351Z,84.59
2023-05-09T06:32:19.484Z,84.50
2023-05-09T06:33:13.560Z,83.60
2023-05-09T06:34:08.558Z,82.63
2023-05-09T06:35:00.274Z,84.40
2023-05-09T06:35:51.730Z,84.57
2023-05-09T06:36:43.187Z,83.12
2023-05-09T06:37:34.939Z,82.22
2023-05-09T06:38:26.530Z,82.17
2023-05-09T06:39:17.977Z,81.94
2023-05-09T06:40:12.330Z,85.76
2023-05-09T06:41:04.096Z,83.22
2023-05-09T06:42:01.024Z,82.72
2023-05-09T06:42:57.057Z,81.61
2023-05-09T06:43:49.877Z,82.75
2023-05-09T06:44:41.492Z,80.73
2023-05-09T06:45:32.988Z,82.60
2023-05-09T06:46:26.641Z,82.89
2023-05-09T06:47:18.070Z,80.59
2023-05-09T06:48:11.392Z,81.88
2023-05-09T06:49:03.179Z,82.12
2023-05-09T06:49:54.676Z,81.50
2023-05-09T06:50:46.294Z,81.65
2023-05-09T06:51:38.013Z,81.21
2023-05-09T06:52:29.408Z,81.75
2023-05-09T06:53:20.925Z,82.88
2023-05-09T06:54:12.669Z,84.47
2023-05-09T06:55:04.484Z,82.19
2023-05-09T06:56:00.163Z,83.09
2023-05-09T06:56:51.841Z,80.25
2023-05-09T06:57:43.334Z,82.11
2023-05-09T06:58:34.881Z,82.50
2023-05-09T06:59:26.969Z,83.22
2023-05-09T07:00:18.646Z,80.07
2023-05-09T07:01:10.177Z,80.23
2023-05-09T07:02:01.721Z,81.83
2023-05-09T07:02:54.508Z,81.29
2023-05-09T07:03:47.444Z,80.42
2023-05-09T07:04:38.949Z,80.41
2023-05-09T07:05:30.565Z,78.43
2023-05-09T07:06:25.389Z,79.17
2023-05-09T07:07:17.263Z,79.85
2023-05-09T07:08:08.664Z,80.47
2023-05-09T07:09:00.214Z,80.51
2023-05-09T07:10:00.715Z,81.13
2023-05-09T07:10:59.181Z,79.94
2023-05-09T07:11:50.622Z,80.97
2023-05-09T07:12:42.139Z,81.38
2023-05-09T07:13:33.965Z,80.88
2023-05-09T07:14:25.705Z,79.53
2023-05-09T07:15:28.720Z,77.85
2023-05-09T07:16:29.669Z,78.64
2023-05-09T07:17:24.022Z,79.56
2023-05-09T07:18:15.784Z,80.11
2023-05-09T07:19:07.494Z,79.30
2023-05-09T07:20:03.819Z,78.21
2023-05-09T07:20:55.715Z,78.87
2023-05-09T07:21:47.137Z,78.75
2023-05-09T07:22:38.714Z,77.58
2023-05-09T07:23:32.422Z,77.35
2023-05-09T07:24:23.810Z,78.61
2023-05-09T07:25:17.730Z,79.04
2023-05-09T07:26:11.638Z,78.71
2023-05-09T07:27:03.865Z,79.30
2023-05-09T07:27:55.414Z,77.66
2023-05-09T07:28:46.879Z,76.35
2023-05-09T07:29:40.678Z,77.08
2023-05-09T07:30:32.174Z,76.31
2023-05-09T07:31:23.683Z,77.11
2023-05-09T07:32:15.553Z,75.77
2023-05-09T07:33:09.491Z,77.56
2023-05-09T07:34:01.062Z,78.38
2023-05-09T07:34:52.637Z,77.72
2023-05-09T07:35:44.258Z,78.70
2023-05-09T07:37:34.918Z,76.24
2023-05-09T07:38:26.682Z,76.24
2023-05-09T07:39:18.168Z,74.16
2023-05-09T07:40:13.279Z,75.77
2023-05-09T07:41:04.961Z,76.17
2023-05-09T07:41:56.494Z,75.50
2023-05-09T07:42:51.704Z,75.18
2023-05-09T07:43:43.184Z,73.69
2023-05-09T07:44:34.580Z,75.14
2023-05-09T07:45:26.090Z,72.14
2023-05-09T07:46:17.567Z,71.86
2023-05-09T07:47:09.373Z,73.45
2023-05-09T07:48:00.922Z,71.85
2023-05-09T07:48:52.422Z,72.90
2023-05-09T07:49:46.215Z,71.76
2023-05-09T07:50:45.116Z,73.58
2023-05-09T07:51:36.791Z,71.38
2023-05-09T07:52:28.207Z,74.07
2023-05-09T07:53:19.603Z,70.47
2023-05-09T07:54:11.208Z,71.46
2023-05-09T07:55:02.980Z,75.35
2023-05-09T07:55:55.998Z,71.05
2023-05-09T07:56:47.396Z,71.68
2023-05-09T07:57:39.785Z,70.96
2023-05-09T07:58:31.214Z,71.63
2023-05-09T07:59:24.156Z,71.28
2023-05-09T08:00:16.436Z,71.58
2023-05-09T08:01:07.886Z,70.39
2023-05-09T08:01:59.440Z,70.09
2023-05-09T08:02:51.862Z,69.48
2023-05-09T08:03:43.500Z,72.30
2023-05-09T08:04:38.331Z,70.13
2023-05-09T08:05:29.968Z,70.71
2023-05-09T08:06:21.795Z,70.88
2023-05-09T08:07:13.374Z,71.55
2023-05-09T08:08:07.827Z,71.90
2023-05-09T08:09:01.564Z,71.45
2023-05-09T08:09:55.632Z,67.79
2023-05-09T08:10:47.046Z,71.57
2023-05-09T08:11:38.575Z,70.22
2023-05-09T08:12:30.018Z,70.29
2023-05-09T08:13:22.387Z,72.15
2023-05-09T08:14:15.028Z,69.71
2023-05-09T08:15:07.606Z,69.65
2023-05-09T08:16:02.267Z,70.66
2023-05-09T08:16:54.222Z,72.08
2023-05-09T08:17:45.800Z,68.79
2023-05-09T08:18:37.332Z,68.11
2023-05-09T08:19:28.793Z,68.32
2023-05-09T08:20:21.530Z,68.95
2023-05-09T08:21:13.453Z,70.17
2023-05-09T08:22:04.922Z,69.09
2023-05-09T08:22:56.367Z,69.53
2023-05-09T08:23:48.034Z,70.60
2023-05-09T08:24:39.732Z,70.92
2023-05-09T08:25:33.864Z,68.11
2023-05-09T08:26:27.168Z,69.26
2023-05-09T08:27:18.620Z,68.65
2023-05-09T08:28:10.212Z,68.28
2023-05-09T08:29:01.978Z,68.90
2023-05-09T08:29:53.488Z,71.71
2023-05-09T08:30:44.946Z,70.46
2023-05-09T08:31:36.454Z,71.99
2023-05-09T08:32:29.988Z,68.41
2023-05-09T08:33:21.500Z,70.08
2023-05-09T08:34:12.971Z,67.28
2023-05-09T08:35:04.979Z,66.89
2023-05-09T08:35:56.595Z,65.91
2023-05-09T08:36:48.584Z,67.56
2023-05-09T08:37:44.805Z,68.99
2023-05-09T08:38:40.357Z,68.05
2023-05-09T08:39:34.850Z,70.63
2023-05-09T08:40:26.409Z,70.02
2023-05-09T08:41:19.716Z,67.88
2023-05-09T08:42:15.735Z,67.69
2023-05-09T08:43:07.858Z,67.58
2023-05-09T08:43:59.688Z,70.80
2023-05-09T08:44:51.138Z,68.40
2023-05-09T08:45:49.720Z,67.55
2023-05-09T08:46:47.785Z,67.64
2023-05-09T08:47:40.001Z,67.98
2023-05-09T08:48:35.990Z,66.02
2023-05-09T08:49:28.079Z,67.38
2023-05-09T08:50:20.962Z,66.59
2023-05-09T08:51:13.941Z,66.76
2023-05-09T08:52:06.111Z,67.09
2023-05-09T08:52:58.787Z,66.31
2023-05-09T08:53:52.216Z,64.92
2023-05-09T08:54:44.166Z,64.12
2023-05-09T08:55:36.024Z,63.87
2023-05-09T08:56:27.596Z,62.02
2023-05-09T08:57:19.340Z,67.13
2023-05-09T08:58:14.303Z,65.81
2023-05-09T08:59:06.559Z,66.07
2023-05-09T09:00:00.234Z,65.07
2023-05-09T09:00:53.746Z,65.04
2023-05-09T09:01:46.693Z,63.61
2023-05-09T09:02:43.781Z,64.29
2023-05-09T09:03:37.912Z,69.19
2023-05-09T09:04:29.799Z,68.62
2023-05-09T09:05:39.994Z,66.04
2023-05-09T09:06:34.838Z,64.50
2023-05-09T09:07:32.982Z,63.84
2023-05-09T09:08:27.899Z,65.37
2023-05-09T09:09:21.966Z,66.06
2023-05-09T09:10:13.784Z,65.22
2023-05-09T09:11:05.688Z,67.75
2023-05-09T09:11:58.026Z,66.31
2023-05-09T09:12:53.141Z,67.62
2023-05-09T09:13:47.515Z,66.89
2023-05-09T09:14:46.203Z,67.91
2023-05-09T09:15:40.531Z,64.38
2023-05-09T09:16:34.576Z,68.04
2023-05-09T09:17:30.397Z,65.79
2023-05-09T09:18:30.659Z,65.49
2023-05-09T09:19:27.794Z,69.68
2023-05-09T09:20:24.547Z,67.08
2023-05-09T09:21:19.418Z,66.49
2023-05-09T09:22:19.070Z,60.89
2023-05-09T09:23:17.221Z,63.80
2023-05-09T09:24:09.476Z,62.11
2023-05-09T09:25:01.995Z,60.19
2023-05-09T09:26:02.355Z,60.78
2023-05-09T09:26:56.902Z,61.51
2023-05-09T09:27:52.849Z,60.23
2023-05-09T09:28:44.578Z,62.41
2023-05-09T09:29:38.702Z,60.86
2023-05-09T09:30:30.516Z,61.45
2023-05-09T09:31:30.159Z,62.14
2023-05-09T09:32:32.833Z,59.63
2023-05-09T09:33:26.252Z,59.21
2023-05-09T09:34:22.772Z,58.86
2023-05-09T09:35:14.150Z,59.19
2023-05-09T09:36:08.267Z,59.08
2023-05-09T09:36:59.805Z,61.69
2023-05-09T09:37:59.867Z,62.43
2023-05-09T09:39:00.307Z,63.08
2023-05-09T09:39:56.212Z,61.86
2023-05-09T09:40:57.300Z,60.88
2023-05-09T09:41:48.877Z,60.57
2023-05-09T09:42:42.908Z,62.45
2023-05-09T09:43:34.356Z,62.14
2023-05-09T09:44:25.918Z,60.83
2023-05-09T09:45:20.182Z,62.30
2023-05-09T09:46:14.133Z,61.40
2023-05-09T09:47:12.784Z,60.52
2023-05-09T09:48:11.954Z,59.48
2023-05-09T09:49:03.494Z,60.09
2023-05-09T09:49:54.879Z,60.50
2023-05-09T09:50:48.612Z,62.00
2023-05-09T09:51:40.926Z,62.71
2023-05-09T09:52:32.427Z,63.65
2023-05-09T09:53:30.063Z,61.74
2023-05-09T09:54:22.189Z,65.62
2023-05-09T09:55:13.721Z,65.18
2023-05-09T09:56:05.504Z,67.26
2023-05-09T09:56:59.175Z,64.37
2023-05-09T09:57:51.723Z,66.78
2023-05-09T09:58:45.281Z,62.15
2023-05-09T09:59:36.782Z,67.60
2023-05-09T10:00:28.770Z,61.76
2023-05-09T10:01:20.815Z,60.75
2023-05-09T10:02:12.749Z,58.72
2023-05-09T10:03:04.334Z,57.66
2023-05-09T10:03:56.139Z,61.34
2023-05-09T10:04:47.960Z,60.07
2023-05-09T10:05:40.754Z,57.62
2023-05-09T10:06:32.813Z,56.90
2023-05-09T10:07:24.336Z,59.48
2023-05-09T10:08:17.351Z,60.56
2023-05-09T10:09:10.063Z,58.74
2023-05-09T10:10:05.874Z,59.52
2023-05-09T10:11:01.927Z,62.19
2023-05-09T10:11:55.064Z,57.87
2023-05-09T10:12:47.613Z,58.40
2023-05-09T10:13:39.300Z,58.10
2023-05-09T10:14:35.356Z,57.98
2023-05-09T10:15:35.594Z,57.57
2023-05-09T10:16:43.939Z,60.42
2023-05-09T10:17:36.756Z,60.92
2023-05-09T10:18:31.050Z,61.42
2023-05-09T10:19:26.286Z,59.62
2023-05-09T10:20:18.771Z,56.88
2023-05-09T10:21:14.589Z,60.46
2023-05-09T10:22:10.386Z,62.34
2023-05-09T10:23:03.919Z,57.99
2023-05-09T10:23:56.246Z,57.97
2023-05-09T10:25:15.746Z,59.05
2023-05-09T10:26:23.400Z,59.90
2023-05-09T10:27:21.604Z,57.46
2023-05-09T10:28:18.028Z,56.84
2023-05-09T10:29:15.847Z,56.24
2023-05-09T10:30:12.181Z,57.07
2023-05-09T10:31:09.600Z,57.38
2023-05-09T10:32:15.360Z,57.18
2023-05-09T10:33:14.208Z,57.45
2023-05-09T10:34:10.560Z,58.27
2023-05-09T10:35:06.859Z,56.16
2023-05-09T10:36:01.170Z,58.45
2023-05-09T10:36:53.810Z,60.55
2023-05-09T10:37:46.250Z,57.97
2023-05-09T10:38:44.072Z,57.94
2023-05-09T10:39:37.100Z,60.85
2023-05-09T10:40:30.023Z,59.13
2023-05-09T10:41:22.517Z,60.22
2023-05-09T10:42:14.335Z,58.32
2023-05-09T10:43:08.333Z,57.38
2023-05-09T10:44:00.391Z,62.20
2023-05-09T10:44:54.009Z,61.02
2023-05-09T10:45:55.816Z,61.09
2023-05-09T10:46:48.111Z,60.17
2023-05-09T10:47:41.586Z,58.91
2023-05-09T10:48:36.457Z,59.41
2023-05-09T10:49:28.535Z,57.67
2023-05-09T10:50:21.603Z,54.63
2023-05-09T10:51:13.848Z,55.51
2023-05-09T10:52:05.299Z,61.09
2023-05-09T10:53:08.750Z,59.83
2023-05-09T10:54:00.300Z,60.76
2023-05-09T10:55:01.451Z,61.09
2023-05-09T10:55:56.422Z,57.94
2023-05-09T10:56:47.806Z,56.64
2023-05-09T10:57:39.519Z,54.17
2023-05-09T10:58:33.528Z,56.50
2023-05-09T10:59:42.850Z,57.91
2023-05-09T11:00:34.596Z,57.95
2023-05-09T11:01:38.784Z,59.61
2023-05-09T11:02:32.421Z,54.68
2023-05-09T11:03:25.947Z,54.27
2023-05-09T11:04:17.517Z,54.72
2023-05-09T11:05:20.129Z,53.98
2023-05-09T11:06:51.516Z,53.04
2023-05-09T11:07:43.554Z,57.96
2023-05-09T11:08:35.334Z,54.89
2023-05-09T11:09:36.371Z,55.34
2023-05-09T11:10:42.524Z,53.96
2023-05-09T11:11:34.232Z,54.12
2023-05-09T11:12:25.785Z,54.27
2023-05-09T11:13:23.828Z,58.98
2023-05-09T11:14:43.088Z,57.08
2023-05-09T11:15:51.873Z,53.90
2023-05-09T11:17:00.857Z,56.89
2023-05-09T11:18:07.852Z,59.75
2023-05-09T11:18:59.580Z,61.15
2023-05-09T11:19:51.228Z,59.23
2023-05-09T11:20:46.163Z,59.39
2023-05-09T11:21:37.776Z,56.42
2023-05-09T11:22:33.004Z,55.52
2023-05-09T11:23:31.264Z,56.14
2023-05-09T11:24:23.169Z,55.35
2023-05-09T11:25:16.545Z,57.83
2023-05-09T11:26:09.274Z,56.16
2023-05-09T11:27:01.367Z,57.98
2023-05-09T11:27:59.090Z,59.20
2023-05-09T11:28:56.030Z,60.73
2023-05-09T11:29:59.261Z,56.19
2023-05-09T11:30:54.871Z,58.22
2023-05-09T11:32:06.750Z,54.69
2023-05-09T11:32:59.108Z,57.09
2023-05-09T11:33:56.247Z,57.60
2023-05-09T11:34:49.220Z,59.35
2023-05-09T11:35:43.940Z,58.27
2023-05-09T11:36:36.820Z,58.81
2023-05-09T11:37:33.282Z,56.60
2023-05-09T11:38:26.742Z,60.69